Terminal Aerodrome Forecast
Issued by NWS

Home | Current Version | Previous Version | Text Only | Print | Product List | Glossary On
Versions: 1 2 3 4 5 6 7 8 9 10 11 12
000
FTUS45 KREV 160500
TAFTRK
TAF
KTRK 160520Z 1606/1706 00000KT P6SM SCT180
     FM161800 36006KT P6SM SCT180
     FM170100 VRB03KT P6SM SKC
      AMD NOT SKED 1606/1612=

USA.gov is the U.S. government's official web portal to all federal, state and local government web resources and services.